Acton Vale, Canada
Current Conditions -  °F | °C
As of 7:00 PM on Friday 21 Nov 2014 (Local Time) from CYHU Reporting Station
Clear Clear  
Wind Chill:   Ceiling: Unl
Heat Index: 21°   Visibility: 9mi
Dew Point:   Wind: 12mph
Humidity: 54%   Direction: 270°W
Pressure: 30.34"   Gusts: NA
Location:  45.63°N, 72.57°W
Report Text: CYHU 220000Z AUTO 27010KT 9SM CLR M06/M14 A3034 RMK SLP276
Loading
Personal Weather Stations






























Interactive Weather Map New forecast layout! Learn more

10-Day Weather Forecast

Advertisements
Track Severe Weather on mobile